sensor_id;sensor_type;location;lat;lon;timestamp;temperature;humidity
33927;DHT22;20485;50.992;5.550;2023-03-23T00:00:47;11.10;99.90
33927;DHT22;20485;50.992;5.550;2023-03-23T00:03:13;11.00;99.90
33927;DHT22;20485;50.992;5.550;2023-03-23T00:05:39;11.10;99.90
33927;DHT22;20485;50.992;5.550;2023-03-23T00:08:07;11.10;99.90
33927;DHT22;20485;50.992;5.550;2023-03-23T00:10:35;11.10;99.90
33927;DHT22;20485;50.992;5.550;2023-03-23T00:13:01;11.00;99.90
33927;DHT22;20485;50.992;5.550;2023-03-23T00:15:30;11.00;99.90
33927;DHT22;20485;50.992;5.550;2023-03-23T00:18:01;11.00;99.90
33927;DHT22;20485;50.992;5.550;2023-03-23T00:20:31;11.00;99.90
33927;DHT22;20485;50.992;5.550;2023-03-23T00:23:06;11.00;99.90
33927;DHT22;20485;50.992;5.550;2023-03-23T00:25:32;11.00;99.90
33927;DHT22;20485;50.992;5.550;2023-03-23T00:27:58;11.00;99.90
33927;DHT22;20485;50.992;5.550;2023-03-23T00:30:24;11.00;99.90
33927;DHT22;20485;50.992;5.550;2023-03-23T00:32:49;11.00;99.90
33927;DHT22;20485;50.992;5.550;2023-03-23T00:35:16;11.00;99.90
33927;DHT22;20485;50.992;5.550;2023-03-23T00:37:43;11.10;99.90
33927;DHT22;20485;50.992;5.550;2023-03-23T00:40:10;11.20;99.90
33927;DHT22;20485;50.992;5.550;2023-03-23T00:42:36;11.20;99.90
33927;DHT22;20485;50.992;5.550;2023-03-23T00:45:04;11.20;99.90
33927;DHT22;20485;50.992;5.550;2023-03-23T00:47:36;11.20;99.90
33927;DHT22;20485;50.992;5.550;2023-03-23T00:50:03;11.30;99.90
33927;DHT22;20485;50.992;5.550;2023-03-23T00:52:30;11.30;99.90
33927;DHT22;20485;50.992;5.550;2023-03-23T00:54:56;11.20;99.90
33927;DHT22;20485;50.992;5.550;2023-03-23T00:57:22;11.30;99.90
33927;DHT22;20485;50.992;5.550;2023-03-23T00:59:50;11.20;99.90
33927;DHT22;20485;50.992;5.550;2023-03-23T01:02:16;11.20;99.90
33927;DHT22;20485;50.992;5.550;2023-03-23T01:04:43;11.20;99.90
33927;DHT22;20485;50.992;5.550;2023-03-23T01:07:11;11.20;99.90
33927;DHT22;20485;50.992;5.550;2023-03-23T01:09:40;11.10;99.90
33927;DHT22;20485;50.992;5.550;2023-03-23T01:12:06;11.10;99.90
33927;DHT22;20485;50.992;5.550;2023-03-23T01:14:31;11.10;99.90
33927;DHT22;20485;50.992;5.550;2023-03-23T01:16:57;11.10;99.90
33927;DHT22;20485;50.992;5.550;2023-03-23T01:19:23;11.00;99.90
33927;DHT22;20485;50.992;5.550;2023-03-23T01:21:48;11.00;99.90
33927;DHT22;20485;50.992;5.550;2023-03-23T01:24:14;11.00;99.90
33927;DHT22;20485;50.992;5.550;2023-03-23T01:26:40;11.10;99.90
33927;DHT22;20485;50.992;5.550;2023-03-23T01:29:06;11.10;99.90
33927;DHT22;20485;50.992;5.550;2023-03-23T01:31:31;11.00;99.90
33927;DHT22;20485;50.992;5.550;2023-03-23T01:33:57;11.10;99.90
33927;DHT22;20485;50.992;5.550;2023-03-23T01:36:26;11.10;99.90
33927;DHT22;20485;50.992;5.550;2023-03-23T01:38:59;11.10;99.90
33927;DHT22;20485;50.992;5.550;2023-03-23T01:41:26;11.10;99.90
33927;DHT22;20485;50.992;5.550;2023-03-23T01:44:04;11.10;99.90
33927;DHT22;20485;50.992;5.550;2023-03-23T01:46:34;11.10;99.90
33927;DHT22;20485;50.992;5.550;2023-03-23T01:49:08;11.10;99.90
33927;DHT22;20485;50.992;5.550;2023-03-23T01:51:39;11.10;99.90
33927;DHT22;20485;50.992;5.550;2023-03-23T01:54:08;11.10;99.90
33927;DHT22;20485;50.992;5.550;2023-03-23T01:56:41;11.00;99.90
33927;DHT22;20485;50.992;5.550;2023-03-23T01:59:08;11.00;99.90
33927;DHT22;20485;50.992;5.550;2023-03-23T02:01:36;11.00;99.90
33927;DHT22;20485;50.992;5.550;2023-03-23T02:04:04;11.00;99.90
33927;DHT22;20485;50.992;5.550;2023-03-23T02:06:31;11.10;99.90
33927;DHT22;20485;50.992;5.550;2023-03-23T02:08:57;11.10;99.90
33927;DHT22;20485;50.992;5.550;2023-03-23T02:11:23;11.00;99.90
33927;DHT22;20485;50.992;5.550;2023-03-23T02:13:49;11.10;99.90
33927;DHT22;20485;50.992;5.550;2023-03-23T02:38:00;11.00;99.90
33927;DHT22;20485;50.992;5.550;2023-03-23T02:40:33;11.00;99.90
33927;DHT22;20485;50.992;5.550;2023-03-23T02:43:07;10.90;99.90
33927;DHT22;20485;50.992;5.550;2023-03-23T02:45:35;11.00;99.90
33927;DHT22;20485;50.992;5.550;2023-03-23T02:48:03;11.00;99.90
33927;DHT22;20485;50.992;5.550;2023-03-23T02:50:30;11.00;99.90
33927;DHT22;20485;50.992;5.550;2023-03-23T02:52:57;11.00;99.90
33927;DHT22;20485;50.992;5.550;2023-03-23T02:55:25;11.00;99.90
33927;DHT22;20485;50.992;5.550;2023-03-23T02:57:52;11.00;99.90
33927;DHT22;20485;50.992;5.550;2023-03-23T03:00:19;10.90;99.90
33927;DHT22;20485;50.992;5.550;2023-03-23T03:02:55;11.00;99.90
33927;DHT22;20485;50.992;5.550;2023-03-23T03:05:42;11.00;99.90
33927;DHT22;20485;50.992;5.550;2023-03-23T03:10:56;11.00;99.90
33927;DHT22;20485;50.992;5.550;2023-03-23T03:13:34;11.00;99.90
33927;DHT22;20485;50.992;5.550;2023-03-23T03:18:58;11.00;99.90
33927;DHT22;20485;50.992;5.550;2023-03-23T03:21:28;11.00;99.90
33927;DHT22;20485;50.992;5.550;2023-03-23T03:23:57;10.90;99.90
33927;DHT22;20485;50.992;5.550;2023-03-23T03:26:27;10.90;99.90
33927;DHT22;20485;50.992;5.550;2023-03-23T03:28:54;11.00;99.90
33927;DHT22;20485;50.992;5.550;2023-03-23T03:31:38;10.90;99.90
33927;DHT22;20485;50.992;5.550;2023-03-23T03:34:05;11.00;99.90
33927;DHT22;20485;50.992;5.550;2023-03-23T03:36:33;11.00;99.90
33927;DHT22;20485;50.992;5.550;2023-03-23T03:39:03;11.00;99.90
33927;DHT22;20485;50.992;5.550;2023-03-23T03:41:31;11.00;99.90
33927;DHT22;20485;50.992;5.550;2023-03-23T03:43:56;11.00;99.90
33927;DHT22;20485;50.992;5.550;2023-03-23T03:46:30;11.00;99.90
33927;DHT22;20485;50.992;5.550;2023-03-23T03:49:00;11.00;99.90
33927;DHT22;20485;50.992;5.550;2023-03-23T03:51:27;11.00;99.90
33927;DHT22;20485;50.992;5.550;2023-03-23T03:53:54;11.00;99.90
33927;DHT22;20485;50.992;5.550;2023-03-23T03:56:20;10.90;99.90
33927;DHT22;20485;50.992;5.550;2023-03-23T03:58:48;11.00;99.90
33927;DHT22;20485;50.992;5.550;2023-03-23T04:01:15;11.00;99.90
33927;DHT22;20485;50.992;5.550;2023-03-23T04:03:41;11.00;99.90
33927;DHT22;20485;50.992;5.550;2023-03-23T04:06:09;11.00;99.90
33927;DHT22;20485;50.992;5.550;2023-03-23T04:08:36;11.00;99.90
33927;DHT22;20485;50.992;5.550;2023-03-23T04:11:03;10.90;99.90
33927;DHT22;20485;50.992;5.550;2023-03-23T04:13:30;10.90;99.90
33927;DHT22;20485;50.992;5.550;2023-03-23T04:15:55;10.90;99.90
33927;DHT22;20485;50.992;5.550;2023-03-23T04:18:22;10.90;99.90
33927;DHT22;20485;50.992;5.550;2023-03-23T04:20:50;10.90;99.90
33927;DHT22;20485;50.992;5.550;2023-03-23T04:23:17;10.90;99.90
33927;DHT22;20485;50.992;5.550;2023-03-23T04:25:47;10.90;99.90
33927;DHT22;20485;50.992;5.550;2023-03-23T04:28:14;10.90;99.90
33927;DHT22;20485;50.992;5.550;2023-03-23T04:30:46;10.80;99.90
33927;DHT22;20485;50.992;5.550;2023-03-23T04:33:14;10.80;99.90
33927;DHT22;20485;50.992;5.550;2023-03-23T04:35:42;10.90;99.90
33927;DHT22;20485;50.992;5.550;2023-03-23T04:38:08;10.90;99.90
33927;DHT22;20485;50.992;5.550;2023-03-23T04:40:39;10.90;99.90
33927;DHT22;20485;50.992;5.550;2023-03-23T04:43:05;10.90;99.90
33927;DHT22;20485;50.992;5.550;2023-03-23T04:45:34;10.90;99.90
33927;DHT22;20485;50.992;5.550;2023-03-23T04:47:59;10.90;99.90
33927;DHT22;20485;50.992;5.550;2023-03-23T04:50:28;10.90;99.90
33927;DHT22;20485;50.992;5.550;2023-03-23T04:52:56;10.90;99.90
33927;DHT22;20485;50.992;5.550;2023-03-23T04:55:25;10.90;99.90
33927;DHT22;20485;50.992;5.550;2023-03-23T04:57:51;10.90;99.90
33927;DHT22;20485;50.992;5.550;2023-03-23T05:00:17;10.80;99.90
33927;DHT22;20485;50.992;5.550;2023-03-23T05:02:45;10.90;99.90
33927;DHT22;20485;50.992;5.550;2023-03-23T05:05:13;10.90;99.90
33927;DHT22;20485;50.992;5.550;2023-03-23T05:07:40;10.90;99.90
33927;DHT22;20485;50.992;5.550;2023-03-23T05:10:07;10.90;99.90
33927;DHT22;20485;50.992;5.550;2023-03-23T05:12:33;10.90;99.90
33927;DHT22;20485;50.992;5.550;2023-03-23T05:14:59;10.90;99.90
33927;DHT22;20485;50.992;5.550;2023-03-23T05:17:26;10.90;99.90
33927;DHT22;20485;50.992;5.550;2023-03-23T05:19:52;11.00;99.90
33927;DHT22;20485;50.992;5.550;2023-03-23T05:22:19;10.90;99.90
33927;DHT22;20485;50.992;5.550;2023-03-23T05:24:47;10.90;99.90
33927;DHT22;20485;50.992;5.550;2023-03-23T05:27:13;10.90;99.90
33927;DHT22;20485;50.992;5.550;2023-03-23T05:29:40;10.90;99.90
33927;DHT22;20485;50.992;5.550;2023-03-23T05:32:09;10.90;99.90
33927;DHT22;20485;50.992;5.550;2023-03-23T05:34:36;10.90;99.90
33927;DHT22;20485;50.992;5.550;2023-03-23T05:37:03;10.90;99.90
33927;DHT22;20485;50.992;5.550;2023-03-23T05:39:30;10.90;99.90
33927;DHT22;20485;50.992;5.550;2023-03-23T05:41:56;10.90;99.90
33927;DHT22;20485;50.992;5.550;2023-03-23T05:44:22;11.00;99.90
33927;DHT22;20485;50.992;5.550;2023-03-23T05:46:49;10.90;99.90
33927;DHT22;20485;50.992;5.550;2023-03-23T05:49:15;10.90;99.90
33927;DHT22;20485;50.992;5.550;2023-03-23T05:51:45;11.00;99.90
33927;DHT22;20485;50.992;5.550;2023-03-23T05:54:15;10.90;99.90
33927;DHT22;20485;50.992;5.550;2023-03-23T05:56:42;10.90;99.90
33927;DHT22;20485;50.992;5.550;2023-03-23T05:59:08;11.00;99.90
33927;DHT22;20485;50.992;5.550;2023-03-23T06:01:35;10.90;99.90
33927;DHT22;20485;50.992;5.550;2023-03-23T06:04:01;10.90;99.90
33927;DHT22;20485;50.992;5.550;2023-03-23T06:06:28;10.90;99.90
33927;DHT22;20485;50.992;5.550;2023-03-23T06:08:55;10.90;99.90
33927;DHT22;20485;50.992;5.550;2023-03-23T06:11:23;10.90;99.90
33927;DHT22;20485;50.992;5.550;2023-03-23T06:13:50;10.90;99.90
33927;DHT22;20485;50.992;5.550;2023-03-23T06:16:16;10.90;99.90
33927;DHT22;20485;50.992;5.550;2023-03-23T06:18:42;10.90;99.90
33927;DHT22;20485;50.992;5.550;2023-03-23T06:21:11;10.90;99.90
33927;DHT22;20485;50.992;5.550;2023-03-23T06:23:37;10.90;99.90
33927;DHT22;20485;50.992;5.550;2023-03-23T06:26:06;10.90;99.90
33927;DHT22;20485;50.992;5.550;2023-03-23T06:28:32;11.00;99.90
33927;DHT22;20485;50.992;5.550;2023-03-23T06:31:00;11.10;99.90
33927;DHT22;20485;50.992;5.550;2023-03-23T06:33:27;11.10;99.90
33927;DHT22;20485;50.992;5.550;2023-03-23T06:35:52;11.10;99.90
33927;DHT22;20485;50.992;5.550;2023-03-23T06:38:18;11.10;99.90
33927;DHT22;20485;50.992;5.550;2023-03-23T06:40:44;11.10;99.90
33927;DHT22;20485;50.992;5.550;2023-03-23T06:43:12;11.10;99.90
33927;DHT22;20485;50.992;5.550;2023-03-23T06:45:39;11.10;99.90
33927;DHT22;20485;50.992;5.550;2023-03-23T06:48:05;11.10;99.90
33927;DHT22;20485;50.992;5.550;2023-03-23T06:50:31;11.10;99.90
33927;DHT22;20485;50.992;5.550;2023-03-23T06:52:57;11.10;99.90
33927;DHT22;20485;50.992;5.550;2023-03-23T06:55:23;11.20;99.90
33927;DHT22;20485;50.992;5.550;2023-03-23T06:57:48;11.20;99.90
33927;DHT22;20485;50.992;5.550;2023-03-23T07:00:14;11.20;99.90
33927;DHT22;20485;50.992;5.550;2023-03-23T07:02:40;11.20;99.90
33927;DHT22;20485;50.992;5.550;2023-03-23T07:05:08;11.20;99.90
33927;DHT22;20485;50.992;5.550;2023-03-23T07:07:35;11.20;99.90
33927;DHT22;20485;50.992;5.550;2023-03-23T07:10:02;11.30;99.90
33927;DHT22;20485;50.992;5.550;2023-03-23T07:12:28;11.30;99.90
33927;DHT22;20485;50.992;5.550;2023-03-23T07:14:54;11.30;99.90
33927;DHT22;20485;50.992;5.550;2023-03-23T07:17:24;11.30;99.90
33927;DHT22;20485;50.992;5.550;2023-03-23T07:19:53;11.30;99.90
33927;DHT22;20485;50.992;5.550;2023-03-23T07:22:19;11.40;99.90
33927;DHT22;20485;50.992;5.550;2023-03-23T07:24:45;11.40;99.90
33927;DHT22;20485;50.992;5.550;2023-03-23T07:27:11;11.50;99.90
33927;DHT22;20485;50.992;5.550;2023-03-23T07:29:37;11.50;99.90
33927;DHT22;20485;50.992;5.550;2023-03-23T07:32:04;11.50;99.90
33927;DHT22;20485;50.992;5.550;2023-03-23T07:34:31;11.60;99.90
33927;DHT22;20485;50.992;5.550;2023-03-23T07:36:57;11.60;99.90
33927;DHT22;20485;50.992;5.550;2023-03-23T07:39:24;11.60;99.90
33927;DHT22;20485;50.992;5.550;2023-03-23T07:41:50;11.60;99.90
33927;DHT22;20485;50.992;5.550;2023-03-23T07:44:17;11.70;99.90
33927;DHT22;20485;50.992;5.550;2023-03-23T07:46:42;11.70;99.90
33927;DHT22;20485;50.992;5.550;2023-03-23T07:49:11;11.70;99.90
33927;DHT22;20485;50.992;5.550;2023-03-23T07:51:36;11.80;99.90
33927;DHT22;20485;50.992;5.550;2023-03-23T07:54:06;11.80;99.90
33927;DHT22;20485;50.992;5.550;2023-03-23T07:56:33;11.80;99.90
33927;DHT22;20485;50.992;5.550;2023-03-23T07:58:59;11.80;99.90
33927;DHT22;20485;50.992;5.550;2023-03-23T08:01:26;11.80;99.90
33927;DHT22;20485;50.992;5.550;2023-03-23T08:03:51;11.90;99.90
33927;DHT22;20485;50.992;5.550;2023-03-23T08:06:20;11.90;99.90
33927;DHT22;20485;50.992;5.550;2023-03-23T08:08:46;12.00;99.90
33927;DHT22;20485;50.992;5.550;2023-03-23T08:11:12;12.10;99.90
33927;DHT22;20485;50.992;5.550;2023-03-23T08:13:41;12.10;99.90
33927;DHT22;20485;50.992;5.550;2023-03-23T08:16:08;12.10;99.90
33927;DHT22;20485;50.992;5.550;2023-03-23T08:18:35;12.10;99.90
33927;DHT22;20485;50.992;5.550;2023-03-23T08:21:02;12.00;99.90
33927;DHT22;20485;50.992;5.550;2023-03-23T08:23:30;11.90;99.90
33927;DHT22;20485;50.992;5.550;2023-03-23T08:25:56;11.80;99.90
33927;DHT22;20485;50.992;5.550;2023-03-23T08:28:22;11.80;99.90
33927;DHT22;20485;50.992;5.550;2023-03-23T08:30:48;11.70;99.90
33927;DHT22;20485;50.992;5.550;2023-03-23T08:33:15;11.70;99.90
33927;DHT22;20485;50.992;5.550;2023-03-23T08:35:41;11.70;99.90
33927;DHT22;20485;50.992;5.550;2023-03-23T08:38:11;11.70;99.90
33927;DHT22;20485;50.992;5.550;2023-03-23T08:40:38;11.70;99.90
33927;DHT22;20485;50.992;5.550;2023-03-23T08:43:05;11.70;99.90
33927;DHT22;20485;50.992;5.550;2023-03-23T08:45:31;11.70;99.90
33927;DHT22;20485;50.992;5.550;2023-03-23T08:47:56;11.40;99.90
33927;DHT22;20485;50.992;5.550;2023-03-23T08:50:26;11.10;99.90
33927;DHT22;20485;50.992;5.550;2023-03-23T08:52:55;10.90;99.90
33927;DHT22;20485;50.992;5.550;2023-03-23T08:55:22;10.60;99.90
33927;DHT22;20485;50.992;5.550;2023-03-23T08:57:51;10.50;99.90
33927;DHT22;20485;50.992;5.550;2023-03-23T09:00:19;10.30;99.90
33927;DHT22;20485;50.992;5.550;2023-03-23T09:02:47;10.30;99.90
33927;DHT22;20485;50.992;5.550;2023-03-23T09:05:18;10.10;99.90
33927;DHT22;20485;50.992;5.550;2023-03-23T09:07:48;10.10;99.90
33927;DHT22;20485;50.992;5.550;2023-03-23T09:10:14;10.10;99.90
33927;DHT22;20485;50.992;5.550;2023-03-23T09:12:41;10.00;99.90
33927;DHT22;20485;50.992;5.550;2023-03-23T09:15:09;10.00;99.90
33927;DHT22;20485;50.992;5.550;2023-03-23T09:17:37;9.90;99.90
33927;DHT22;20485;50.992;5.550;2023-03-23T09:20:04;9.80;99.90
33927;DHT22;20485;50.992;5.550;2023-03-23T09:22:41;9.90;99.90
33927;DHT22;20485;50.992;5.550;2023-03-23T09:25:08;9.90;99.90
33927;DHT22;20485;50.992;5.550;2023-03-23T09:27:35;10.00;99.90
33927;DHT22;20485;50.992;5.550;2023-03-23T09:30:04;9.80;99.90
33927;DHT22;20485;50.992;5.550;2023-03-23T09:32:35;9.80;99.90
33927;DHT22;20485;50.992;5.550;2023-03-23T09:35:02;9.90;99.90
33927;DHT22;20485;50.992;5.550;2023-03-23T09:37:29;9.90;99.90
33927;DHT22;20485;50.992;5.550;2023-03-23T09:39:55;9.80;99.90
33927;DHT22;20485;50.992;5.550;2023-03-23T09:46:03;10.10;99.90
33927;DHT22;20485;50.992;5.550;2023-03-23T09:54:24;10.70;99.90
33927;DHT22;20485;50.992;5.550;2023-03-23T09:56:51;10.80;99.90
33927;DHT22;20485;50.992;5.550;2023-03-23T10:01:55;10.80;99.90
33927;DHT22;20485;50.992;5.550;2023-03-23T10:04:43;10.70;99.90
33927;DHT22;20485;50.992;5.550;2023-03-23T10:07:20;10.70;99.90
33927;DHT22;20485;50.992;5.550;2023-03-23T10:09:54;10.70;99.90
33927;DHT22;20485;50.992;5.550;2023-03-23T10:12:33;10.70;99.90
33927;DHT22;20485;50.992;5.550;2023-03-23T10:15:23;10.70;99.90
33927;DHT22;20485;50.992;5.550;2023-03-23T10:18:00;10.80;99.90
33927;DHT22;20485;50.992;5.550;2023-03-23T10:25:52;11.20;99.90
33927;DHT22;20485;50.992;5.550;2023-03-23T10:28:32;11.30;99.90
33927;DHT22;20485;50.992;5.550;2023-03-23T10:31:00;11.40;99.90
33927;DHT22;20485;50.992;5.550;2023-03-23T10:35:55;11.30;99.90
33927;DHT22;20485;50.992;5.550;2023-03-23T10:38:35;11.10;99.90
33927;DHT22;20485;50.992;5.550;2023-03-23T10:41:15;11.10;99.90
33927;DHT22;20485;50.992;5.550;2023-03-23T10:43:42;11.00;99.90
33927;DHT22;20485;50.992;5.550;2023-03-23T10:49:02;10.90;99.90
33927;DHT22;20485;50.992;5.550;2023-03-23T10:51:33;11.00;99.90
33927;DHT22;20485;50.992;5.550;2023-03-23T10:54:02;11.20;99.90
33927;DHT22;20485;50.992;5.550;2023-03-23T10:56:42;11.30;99.90
33927;DHT22;20485;50.992;5.550;2023-03-23T10:59:30;11.50;99.90
33927;DHT22;20485;50.992;5.550;2023-03-23T11:02:00;11.70;99.90
33927;DHT22;20485;50.992;5.550;2023-03-23T11:04:29;11.90;99.90
33927;DHT22;20485;50.992;5.550;2023-03-23T11:07:00;12.00;99.90
33927;DHT22;20485;50.992;5.550;2023-03-23T11:09:35;12.20;99.90
33927;DHT22;20485;50.992;5.550;2023-03-23T11:12:02;12.40;99.90
33927;DHT22;20485;50.992;5.550;2023-03-23T11:17:00;12.30;99.90
33927;DHT22;20485;50.992;5.550;2023-03-23T11:19:32;12.30;99.90
33927;DHT22;20485;50.992;5.550;2023-03-23T11:22:08;12.30;99.90
33927;DHT22;20485;50.992;5.550;2023-03-23T11:24:41;12.10;99.90
33927;DHT22;20485;50.992;5.550;2023-03-23T11:27:08;12.00;99.90
33927;DHT22;20485;50.992;5.550;2023-03-23T11:29:36;11.90;99.90
33927;DHT22;20485;50.992;5.550;2023-03-23T11:32:10;11.80;99.90
33927;DHT22;20485;50.992;5.550;2023-03-23T11:34:49;11.90;99.90
33927;DHT22;20485;50.992;5.550;2023-03-23T11:51:06;11.90;99.90
33927;DHT22;20485;50.992;5.550;2023-03-23T11:53:55;12.10;99.90
33927;DHT22;20485;50.992;5.550;2023-03-23T11:56:37;12.40;99.90
33927;DHT22;20485;50.992;5.550;2023-03-23T11:59:12;12.60;99.90
33927;DHT22;20485;50.992;5.550;2023-03-23T12:04:35;13.10;99.90
33927;DHT22;20485;50.992;5.550;2023-03-23T12:12:59;12.90;99.90
33927;DHT22;20485;50.992;5.550;2023-03-23T12:45:58;13.50;99.90
33927;DHT22;20485;50.992;5.550;2023-03-23T12:51:37;13.50;99.90
33927;DHT22;20485;50.992;5.550;2023-03-23T12:54:24;13.40;99.90
33927;DHT22;20485;50.992;5.550;2023-03-23T13:07:58;14.10;99.90
33927;DHT22;20485;50.992;5.550;2023-03-23T13:10:38;14.10;99.90
33927;DHT22;20485;50.992;5.550;2023-03-23T13:13:13;14.30;99.90
33927;DHT22;20485;50.992;5.550;2023-03-23T13:21:38;13.70;99.90
33927;DHT22;20485;50.992;5.550;2023-03-23T13:24:10;13.60;99.90
33927;DHT22;20485;50.992;5.550;2023-03-23T13:26:40;13.40;99.90
33927;DHT22;20485;50.992;5.550;2023-03-23T13:29:19;13.40;99.90
33927;DHT22;20485;50.992;5.550;2023-03-23T13:31:46;13.30;99.90
33927;DHT22;20485;50.992;5.550;2023-03-23T13:34:24;13.30;99.90
33927;DHT22;20485;50.992;5.550;2023-03-23T13:36:57;13.30;99.90
33927;DHT22;20485;50.992;5.550;2023-03-23T13:39:27;13.20;99.90
33927;DHT22;20485;50.992;5.550;2023-03-23T13:42:18;13.10;99.90
33927;DHT22;20485;50.992;5.550;2023-03-23T13:55:21;12.50;99.90
33927;DHT22;20485;50.992;5.550;2023-03-23T13:57:57;12.50;99.90
33927;DHT22;20485;50.992;5.550;2023-03-23T14:08:22;12.50;99.90
33927;DHT22;20485;50.992;5.550;2023-03-23T14:10:51;12.50;99.90
33927;DHT22;20485;50.992;5.550;2023-03-23T14:13:29;12.60;99.90
33927;DHT22;20485;50.992;5.550;2023-03-23T14:19:19;12.80;99.90
33927;DHT22;20485;50.992;5.550;2023-03-23T14:21:55;13.00;99.90
33927;DHT22;20485;50.992;5.550;2023-03-23T14:24:24;13.10;99.90
33927;DHT22;20485;50.992;5.550;2023-03-23T14:26:53;13.10;99.90
33927;DHT22;20485;50.992;5.550;2023-03-23T14:29:20;13.40;99.90
33927;DHT22;20485;50.992;5.550;2023-03-23T14:31:55;13.40;99.90
33927;DHT22;20485;50.992;5.550;2023-03-23T14:34:24;13.40;99.90
33927;DHT22;20485;50.992;5.550;2023-03-23T14:36:52;13.30;99.90
33927;DHT22;20485;50.992;5.550;2023-03-23T14:41:51;13.40;99.90
33927;DHT22;20485;50.992;5.550;2023-03-23T14:44:23;13.50;99.90
33927;DHT22;20485;50.992;5.550;2023-03-23T14:46:49;13.60;99.90
33927;DHT22;20485;50.992;5.550;2023-03-23T14:49:17;13.60;99.90
33927;DHT22;20485;50.992;5.550;2023-03-23T14:51:49;13.80;99.90
33927;DHT22;20485;50.992;5.550;2023-03-23T14:54:25;13.80;99.90
33927;DHT22;20485;50.992;5.550;2023-03-23T14:56:50;13.80;99.90
33927;DHT22;20485;50.992;5.550;2023-03-23T14:59:16;14.00;99.90
33927;DHT22;20485;50.992;5.550;2023-03-23T15:01:43;14.00;99.90
33927;DHT22;20485;50.992;5.550;2023-03-23T15:04:21;13.90;99.90
33927;DHT22;20485;50.992;5.550;2023-03-23T15:07:00;13.70;99.90
33927;DHT22;20485;50.992;5.550;2023-03-23T15:09:27;13.60;99.90
33927;DHT22;20485;50.992;5.550;2023-03-23T15:11:59;13.50;99.90
33927;DHT22;20485;50.992;5.550;2023-03-23T15:14:47;13.50;99.90
33927;DHT22;20485;50.992;5.550;2023-03-23T15:17:27;13.60;99.90
33927;DHT22;20485;50.992;5.550;2023-03-23T15:19:54;13.80;99.90
33927;DHT22;20485;50.992;5.550;2023-03-23T15:22:30;13.80;99.90
33927;DHT22;20485;50.992;5.550;2023-03-23T15:25:20;13.90;99.90
33927;DHT22;20485;50.992;5.550;2023-03-23T15:28:09;13.90;99.90
33927;DHT22;20485;50.992;5.550;2023-03-23T15:30:47;13.70;99.90
33927;DHT22;20485;50.992;5.550;2023-03-23T15:33:14;13.60;99.90
33927;DHT22;20485;50.992;5.550;2023-03-23T15:35:48;13.50;99.90
33927;DHT22;20485;50.992;5.550;2023-03-23T15:38:19;13.40;99.90
33927;DHT22;20485;50.992;5.550;2023-03-23T15:40:49;13.40;99.90
33927;DHT22;20485;50.992;5.550;2023-03-23T15:43:17;13.40;99.90
33927;DHT22;20485;50.992;5.550;2023-03-23T15:45:56;13.30;99.90
33927;DHT22;20485;50.992;5.550;2023-03-23T15:48:26;13.10;99.90
33927;DHT22;20485;50.992;5.550;2023-03-23T15:50:52;13.10;99.90
33927;DHT22;20485;50.992;5.550;2023-03-23T15:53:33;13.10;99.90
33927;DHT22;20485;50.992;5.550;2023-03-23T15:56:02;13.10;99.90
33927;DHT22;20485;50.992;5.550;2023-03-23T15:58:29;13.10;99.90
33927;DHT22;20485;50.992;5.550;2023-03-23T16:00:55;13.00;99.90
33927;DHT22;20485;50.992;5.550;2023-03-23T16:03:27;13.00;99.90
33927;DHT22;20485;50.992;5.550;2023-03-23T16:05:56;13.00;99.90
33927;DHT22;20485;50.992;5.550;2023-03-23T16:08:24;13.00;99.90
33927;DHT22;20485;50.992;5.550;2023-03-23T16:10:49;13.00;99.90
33927;DHT22;20485;50.992;5.550;2023-03-23T16:13:15;13.00;99.90
33927;DHT22;20485;50.992;5.550;2023-03-23T16:15:43;13.10;99.90
33927;DHT22;20485;50.992;5.550;2023-03-23T16:18:19;13.20;99.90
33927;DHT22;20485;50.992;5.550;2023-03-23T16:20:46;13.30;99.90
33927;DHT22;20485;50.992;5.550;2023-03-23T16:23:12;13.50;99.90
33927;DHT22;20485;50.992;5.550;2023-03-23T16:25:38;13.60;99.90
33927;DHT22;20485;50.992;5.550;2023-03-23T16:28:04;13.70;99.90
33927;DHT22;20485;50.992;5.550;2023-03-23T16:30:32;13.80;99.90
33927;DHT22;20485;50.992;5.550;2023-03-23T16:32:58;13.80;99.90
33927;DHT22;20485;50.992;5.550;2023-03-23T16:35:24;13.70;99.90
33927;DHT22;20485;50.992;5.550;2023-03-23T16:37:53;13.60;99.90
33927;DHT22;20485;50.992;5.550;2023-03-23T16:40:19;13.60;99.90
33927;DHT22;20485;50.992;5.550;2023-03-23T16:42:45;13.40;99.90
33927;DHT22;20485;50.992;5.550;2023-03-23T16:45:12;13.40;99.90
33927;DHT22;20485;50.992;5.550;2023-03-23T16:47:39;13.30;99.90
33927;DHT22;20485;50.992;5.550;2023-03-23T16:50:07;13.30;99.90
33927;DHT22;20485;50.992;5.550;2023-03-23T16:52:34;13.30;99.90
33927;DHT22;20485;50.992;5.550;2023-03-23T16:54:59;13.30;99.90
33927;DHT22;20485;50.992;5.550;2023-03-23T16:57:25;13.30;99.90
33927;DHT22;20485;50.992;5.550;2023-03-23T16:59:53;13.40;99.90
33927;DHT22;20485;50.992;5.550;2023-03-23T17:02:18;13.30;99.90
33927;DHT22;20485;50.992;5.550;2023-03-23T17:04:45;13.30;99.90
33927;DHT22;20485;50.992;5.550;2023-03-23T17:07:12;13.20;99.90
33927;DHT22;20485;50.992;5.550;2023-03-23T17:09:38;13.20;99.90
33927;DHT22;20485;50.992;5.550;2023-03-23T17:12:04;13.10;99.90
33927;DHT22;20485;50.992;5.550;2023-03-23T17:14:31;13.00;99.90
33927;DHT22;20485;50.992;5.550;2023-03-23T17:16:57;12.90;99.90
33927;DHT22;20485;50.992;5.550;2023-03-23T17:19:22;12.80;99.90
33927;DHT22;20485;50.992;5.550;2023-03-23T17:21:48;12.80;99.90
33927;DHT22;20485;50.992;5.550;2023-03-23T17:24:14;12.70;99.90
33927;DHT22;20485;50.992;5.550;2023-03-23T17:26:40;12.60;99.90
33927;DHT22;20485;50.992;5.550;2023-03-23T17:29:06;12.60;99.90
33927;DHT22;20485;50.992;5.550;2023-03-23T17:31:32;12.70;99.90
33927;DHT22;20485;50.992;5.550;2023-03-23T17:33:57;12.70;99.90
33927;DHT22;20485;50.992;5.550;2023-03-23T17:36:23;12.70;99.90
33927;DHT22;20485;50.992;5.550;2023-03-23T17:38:49;12.60;99.90
33927;DHT22;20485;50.992;5.550;2023-03-23T17:41:15;12.60;99.90
33927;DHT22;20485;50.992;5.550;2023-03-23T17:43:41;12.60;99.90
33927;DHT22;20485;50.992;5.550;2023-03-23T17:46:09;12.60;99.90
33927;DHT22;20485;50.992;5.550;2023-03-23T17:48:40;12.50;99.90
33927;DHT22;20485;50.992;5.550;2023-03-23T17:51:06;12.40;99.90
33927;DHT22;20485;50.992;5.550;2023-03-23T17:53:41;12.40;99.90
33927;DHT22;20485;50.992;5.550;2023-03-23T17:56:07;12.30;99.90
33927;DHT22;20485;50.992;5.550;2023-03-23T17:58:33;12.30;99.90
33927;DHT22;20485;50.992;5.550;2023-03-23T18:01:00;12.20;99.90
33927;DHT22;20485;50.992;5.550;2023-03-23T18:03:26;12.20;99.90
33927;DHT22;20485;50.992;5.550;2023-03-23T18:05:57;12.20;99.90
33927;DHT22;20485;50.992;5.550;2023-03-23T18:08:24;12.20;99.90
33927;DHT22;20485;50.992;5.550;2023-03-23T18:10:51;12.20;99.90